Share

Mud Butte, SD (57758)

Black Hills-Ice (KSPF) Elev 3898 ft | 44.48 °N, 103.78 °W | Change Station

Current weather conditions updated 24 minutes ago

Clear
Clear
52 °F
Feels Like 52 °F
N
14
Wind Variable Wind from East
Sunrise 6:02 AM
Sunset 7:39 PM
Moon Waning Gibbous

Tomorrow is forecast to be Much Warmer than today.

Pressure 29.93 in
Visibility 10.0 miles
Clouds Clear
Dew Point 36 °F
Humidity 54%
Rainfall 0.00 in
Snow Depth Not available.
UV 1 out of 16
Pollen 7.90 out of 12
Air Quality Not available.
Flu Activity Sporadic
METAR KSPF 180015Z AUTO 10012KT 10SM CLR 11/02 A2993 RMK AO2

More Conditions Fewer Conditions

Pressure 29.93 in
Visibility 10.0 miles
Clouds Clear
Dew Point 36 °F
Humidity 54%
Rainfall 0.00 in
Snow Depth Not available.
UV 1 out of 16
Pollen 7.90 out of 12
Air Quality Not available.
Flu Activity Sporadic
METAR KSPF 180015Z AUTO 10012KT 10SM CLR 11/02 A2993 RMK AO2

More Conditions Fewer Conditions

10-Day Forecast

Almanac

Astronomy

Apr. 17, 2014 Rise Set
Actual Time 6:02 AM MDT 7:39 PM MDT
Civil Twilight 5:32 AM MDT 8:10 PM MDT
Nautical Twilight 4:54 AM MDT 8:48 PM MDT
Astronomical Twilight 4:14 AM MDT 9:28 PM MDT
Moon 10:33 PM MDT (4/17) 7:31 AM MDT (4/17)
Length of Visible Light 14h 38m
Length of Day
13h 36m
Tomorrow will be 2m 59s longer.
Waning Gibbous, 91% of the Moon is Illuminated
Today
Waning Gibbous
Apr 22
Last Quarter
Apr 29
New
May 6
First Quarter
May 14
Full

Today's Extremes

State Highs State Lows

Community

  • Morning Light
    Morning Light
  • New Day
    New Day
  • Lake Michigan Sunrise
    Lake Michigan Sunrise
  • sunset from izmir, narlıdere
    sunset from izmir, narlıdere
  • oregon cherry
    oregon cherry

WunderPhotos

Upload Photos

1,702,188 photos uploaded!

WunderBlogs® & News

Nearby

Snow Depth

Station Depth Elevation
North Rapid Creek 22 in 6130 ft
Blind Park 23 in 6890 ft

Coastal Water Temperatures

Place Temperature
No Stations Reporting

Earthquake Activity

City Distance Mag. Time & Date
No recent earthquake activity has been reported nearby.
Minimum magnitude displayed is 2.5.

Nearby Weather Stations

There are no personal weather stations in this area.

What do you think?

We're not finished. Please let us know what you like, what you don't like, and what you are still missing.